sensor_id;sensor_type;location;lat;lon;timestamp;pressure;altitude;pressure_sealevel;temperature;humidity
18985;BME280;9626;52.552;13.436;2023-03-16T00:00:40;101470.34;;;0.57;100.00
18985;BME280;9626;52.552;13.436;2023-03-16T00:03:11;101468.63;;;0.58;100.00
18985;BME280;9626;52.552;13.436;2023-03-16T00:05:51;101470.25;;;0.54;100.00
18985;BME280;9626;52.552;13.436;2023-03-16T00:08:18;101474.72;;;0.58;100.00
18985;BME280;9626;52.552;13.436;2023-03-16T00:10:46;101473.59;;;0.50;100.00
18985;BME280;9626;52.552;13.436;2023-03-16T00:13:14;101486.72;;;0.53;100.00
18985;BME280;9626;52.552;13.436;2023-03-16T00:15:48;101475.63;;;0.59;100.00
18985;BME280;9626;52.552;13.436;2023-03-16T00:18:16;101474.72;;;0.58;100.00
18985;BME280;9626;52.552;13.436;2023-03-16T00:20:43;101478.16;;;0.57;100.00
18985;BME280;9626;52.552;13.436;2023-03-16T00:23:09;101484.97;;;0.52;100.00
18985;BME280;9626;52.552;13.436;2023-03-16T00:25:35;101477.16;;;0.52;100.00
18985;BME280;9626;52.552;13.436;2023-03-16T00:28:01;101473.84;;;0.58;100.00
18985;BME280;9626;52.552;13.436;2023-03-16T00:30:29;101479.75;;;0.52;100.00
18985;BME280;9626;52.552;13.436;2023-03-16T00:32:58;101477.19;;;0.54;100.00
18985;BME280;9626;52.552;13.436;2023-03-16T00:35:24;101481.50;;;0.53;100.00
18985;BME280;9626;52.552;13.436;2023-03-16T00:37:50;101483.28;;;0.54;100.00
18985;BME280;9626;52.552;13.436;2023-03-16T00:40:16;101481.50;;;0.53;100.00
18985;BME280;9626;52.552;13.436;2023-03-16T00:42:44;101483.19;;;0.51;100.00
18985;BME280;9626;52.552;13.436;2023-03-16T00:45:10;101485.00;;;0.54;100.00
18985;BME280;9626;52.552;13.436;2023-03-16T00:47:36;101485.69;;;0.48;100.00
18985;BME280;9626;52.552;13.436;2023-03-16T00:50:02;101489.16;;;0.48;100.00
18985;BME280;9626;52.552;13.436;2023-03-16T00:52:29;101497.03;;;0.50;100.00
18985;BME280;9626;52.552;13.436;2023-03-16T00:54:55;101490.19;;;0.52;100.00
18985;BME280;9626;52.552;13.436;2023-03-16T00:57:23;101488.31;;;0.48;100.00
18985;BME280;9626;52.552;13.436;2023-03-16T00:59:50;101496.94;;;0.47;100.00
18985;BME280;9626;52.552;13.436;2023-03-16T01:02:17;101496.91;;;0.45;100.00
18985;BME280;9626;52.552;13.436;2023-03-16T01:04:44;101494.25;;;0.44;100.00
18985;BME280;9626;52.552;13.436;2023-03-16T01:07:13;101498.50;;;0.42;100.00
18985;BME280;9626;52.552;13.436;2023-03-16T01:09:41;101495.13;;;0.44;100.00
18985;BME280;9626;52.552;13.436;2023-03-16T01:12:12;101494.97;;;0.40;100.00
18985;BME280;9626;52.552;13.436;2023-03-16T01:14:38;101494.97;;;0.40;100.00
18985;BME280;9626;52.552;13.436;2023-03-16T01:17:06;101494.09;;;0.41;100.00
18985;BME280;9626;52.552;13.436;2023-03-16T01:19:34;101494.84;;;0.37;100.00
18985;BME280;9626;52.552;13.436;2023-03-16T01:22:02;101493.97;;;0.36;100.00
18985;BME280;9626;52.552;13.436;2023-03-16T01:24:29;101485.13;;;0.32;100.00
18985;BME280;9626;52.552;13.436;2023-03-16T01:26:55;101492.28;;;0.38;100.00
18985;BME280;9626;52.552;13.436;2023-03-16T01:29:22;101493.00;;;0.34;100.00
18985;BME280;9626;52.552;13.436;2023-03-16T01:31:50;101491.22;;;0.31;100.00
18985;BME280;9626;52.552;13.436;2023-03-16T01:34:18;101485.13;;;0.32;100.00
18985;BME280;9626;52.552;13.436;2023-03-16T01:36:46;101485.91;;;0.30;100.00
18985;BME280;9626;52.552;13.436;2023-03-16T01:39:13;101490.09;;;0.25;100.00
18985;BME280;9626;52.552;13.436;2023-03-16T01:41:40;101495.06;;;0.19;100.00
18985;BME280;9626;52.552;13.436;2023-03-16T01:44:13;101497.75;;;0.20;100.00
18985;BME280;9626;52.552;13.436;2023-03-16T01:46:39;101494.31;;;0.21;100.00
18985;BME280;9626;52.552;13.436;2023-03-16T01:51:58;101494.06;;;0.15;100.00
18985;BME280;9626;52.552;13.436;2023-03-16T01:54:29;101503.31;;;0.07;100.00
18985;BME280;9626;52.552;13.436;2023-03-16T01:57:21;101492.31;;;0.14;100.00
18985;BME280;9626;52.552;13.436;2023-03-16T01:59:58;101500.34;;;0.20;100.00
18985;BME280;9626;52.552;13.436;2023-03-16T02:02:45;101500.28;;;0.19;100.00
18985;BME280;9626;52.552;13.436;2023-03-16T02:07:51;101497.53;;;0.14;100.00
18985;BME280;9626;52.552;13.436;2023-03-16T02:10:25;101490.66;;;0.16;100.00
18985;BME280;9626;52.552;13.436;2023-03-16T02:12:53;101490.59;;;0.14;100.00
18985;BME280;9626;52.552;13.436;2023-03-16T02:15:19;101487.13;;;0.14;100.00
18985;BME280;9626;52.552;13.436;2023-03-16T02:17:46;101485.44;;;0.16;100.00
18985;BME280;9626;52.552;13.436;2023-03-16T02:22:59;101478.56;;;0.18;100.00
18985;BME280;9626;52.552;13.436;2023-03-16T02:28:20;101489.00;;;0.18;100.00
18985;BME280;9626;52.552;13.436;2023-03-16T02:30:50;101485.53;;;0.19;100.00
18985;BME280;9626;52.552;13.436;2023-03-16T02:33:16;101485.53;;;0.19;100.00
18985;BME280;9626;52.552;13.436;2023-03-16T02:35:43;101485.44;;;0.16;100.00
18985;BME280;9626;52.552;13.436;2023-03-16T02:38:09;101486.25;;;0.15;100.00
18985;BME280;9626;52.552;13.436;2023-03-16T02:40:36;101480.13;;;0.13;100.00
18985;BME280;9626;52.552;13.436;2023-03-16T02:43:10;101488.75;;;0.12;100.00
18985;BME280;9626;52.552;13.436;2023-03-16T02:48:11;101491.31;;;0.10;100.00
18985;BME280;9626;52.552;13.436;2023-03-16T02:50:48;101488.44;;;0.03;100.00
18985;BME280;9626;52.552;13.436;2023-03-16T02:53:15;101486.06;;;0.09;100.00
18985;BME280;9626;52.552;13.436;2023-03-16T02:55:42;101488.75;;;0.12;100.00
18985;BME280;9626;52.552;13.436;2023-03-16T02:58:08;101489.28;;;0.02;100.00
18985;BME280;9626;52.552;13.436;2023-03-16T03:00:34;101488.44;;;0.03;100.00
18985;BME280;9626;52.552;13.436;2023-03-16T03:03:00;101491.13;;;0.04;100.00
18985;BME280;9626;52.552;13.436;2023-03-16T03:05:26;101491.88;;;0.02;100.00
18985;BME280;9626;52.552;13.436;2023-03-16T03:07:52;101490.78;;;-0.05;100.00
18985;BME280;9626;52.552;13.436;2023-03-16T03:10:18;101505.50;;;-0.06;100.00
18985;BME280;9626;52.552;13.436;2023-03-16T03:12:45;101499.06;;;-0.15;100.00
18985;BME280;9626;52.552;13.436;2023-03-16T03:15:15;101509.88;;;-0.27;100.00
18985;BME280;9626;52.552;13.436;2023-03-16T03:17:41;101515.25;;;-0.24;100.00
18985;BME280;9626;52.552;13.436;2023-03-16T03:20:09;101511.56;;;-0.29;100.00
18985;BME280;9626;52.552;13.436;2023-03-16T03:22:46;101516.78;;;-0.29;100.00
18985;BME280;9626;52.552;13.436;2023-03-16T03:25:15;101517.44;;;-0.35;100.00
18985;BME280;9626;52.552;13.436;2023-03-16T03:27:42;101514.78;;;-0.37;100.00
18985;BME280;9626;52.552;13.436;2023-03-16T03:30:13;101519.13;;;-0.36;100.00
18985;BME280;9626;52.552;13.436;2023-03-16T03:32:40;101522.69;;;-0.33;100.00
18985;BME280;9626;52.552;13.436;2023-03-16T03:35:07;101530.84;;;-0.24;100.00
18985;BME280;9626;52.552;13.436;2023-03-16T03:37:33;101529.53;;;-0.13;100.00
18985;BME280;9626;52.552;13.436;2023-03-16T03:39:59;101524.22;;;-0.16;100.00
18985;BME280;9626;52.552;13.436;2023-03-16T03:42:29;101522.44;;;-0.17;100.00
18985;BME280;9626;52.552;13.436;2023-03-16T03:44:55;101523.22;;;-0.20;100.00
18985;BME280;9626;52.552;13.436;2023-03-16T03:47:21;101526.16;;;-0.10;100.00
18985;BME280;9626;52.552;13.436;2023-03-16T03:49:47;101527.75;;;-0.14;100.00
18985;BME280;9626;52.552;13.436;2023-03-16T03:52:13;101524.31;;;-0.13;100.00
18985;BME280;9626;52.552;13.436;2023-03-16T03:54:39;101526.81;;;-0.16;100.00
18985;BME280;9626;52.552;13.436;2023-03-16T03:57:05;101527.88;;;-0.11;100.00
18985;BME280;9626;52.552;13.436;2023-03-16T03:59:31;101529.53;;;-0.13;100.00
18985;BME280;9626;52.552;13.436;2023-03-16T04:01:58;101526.94;;;-0.13;100.00
18985;BME280;9626;52.552;13.436;2023-03-16T04:04:23;101522.38;;;-0.19;100.00
18985;BME280;9626;52.552;13.436;2023-03-16T04:06:49;101520.78;;;-0.15;100.00
18985;BME280;9626;52.552;13.436;2023-03-16T04:09:16;101526.09;;;-0.12;100.00
18985;BME280;9626;52.552;13.436;2023-03-16T04:11:42;101518.91;;;-0.19;100.00
18985;BME280;9626;52.552;13.436;2023-03-16T04:14:08;101530.97;;;-0.21;100.00
18985;BME280;9626;52.552;13.436;2023-03-16T04:16:34;101527.28;;;-0.26;100.00
18985;BME280;9626;52.552;13.436;2023-03-16T04:19:20;101532.75;;;-0.20;100.00
18985;BME280;9626;52.552;13.436;2023-03-16T04:22:05;101527.69;;;-0.15;100.00
18985;BME280;9626;52.552;13.436;2023-03-16T04:24:51;101525.19;;;-0.12;100.00
18985;BME280;9626;52.552;13.436;2023-03-16T04:27:17;101524.38;;;-0.11;100.00
18985;BME280;9626;52.552;13.436;2023-03-16T04:29:43;101524.28;;;-0.14;100.00
18985;BME280;9626;52.552;13.436;2023-03-16T04:32:09;101519.06;;;-0.14;100.00
18985;BME280;9626;52.552;13.436;2023-03-16T04:34:36;101524.38;;;-0.11;100.00
18985;BME280;9626;52.552;13.436;2023-03-16T04:37:03;101527.75;;;-0.14;100.00
18985;BME280;9626;52.552;13.436;2023-03-16T04:39:29;101526.00;;;-0.15;100.00
18985;BME280;9626;52.552;13.436;2023-03-16T04:41:55;101527.75;;;-0.14;100.00
18985;BME280;9626;52.552;13.436;2023-03-16T04:44:21;101532.13;;;-0.13;100.00
18985;BME280;9626;52.552;13.436;2023-03-16T04:46:47;101533.91;;;-0.12;100.00
18985;BME280;9626;52.552;13.436;2023-03-16T04:49:13;101534.75;;;-0.13;100.00
18985;BME280;9626;52.552;13.436;2023-03-16T04:51:39;101529.44;;;-0.16;100.00
18985;BME280;9626;52.552;13.436;2023-03-16T04:54:07;101531.06;;;-0.18;100.00
18985;BME280;9626;52.552;13.436;2023-03-16T04:56:33;101526.78;;;-0.18;100.00
18985;BME280;9626;52.552;13.436;2023-03-16T04:58:59;101531.72;;;-0.24;100.00
18985;BME280;9626;52.552;13.436;2023-03-16T05:01:25;101535.41;;;-0.19;100.00
18985;BME280;9626;52.552;13.436;2023-03-16T05:03:52;101539.03;;;-0.15;100.00
18985;BME280;9626;52.552;13.436;2023-03-16T05:06:18;101548.72;;;-0.11;100.00
18985;BME280;9626;52.552;13.436;2023-03-16T05:08:44;101538.31;;;-0.11;100.00
18985;BME280;9626;52.552;13.436;2023-03-16T05:11:10;101545.25;;;-0.10;100.00
18985;BME280;9626;52.552;13.436;2023-03-16T05:13:36;101543.44;;;-0.12;100.00
18985;BME280;9626;52.552;13.436;2023-03-16T05:16:03;101544.22;;;-0.15;100.00
18985;BME280;9626;52.552;13.436;2023-03-16T05:18:29;101544.22;;;-0.15;100.00
18985;BME280;9626;52.552;13.436;2023-03-16T05:20:57;101546.03;;;-0.12;100.00
18985;BME280;9626;52.552;13.436;2023-03-16T05:23:23;101551.91;;;-0.18;100.00
18985;BME280;9626;52.552;13.436;2023-03-16T05:25:50;101548.47;;;-0.17;100.00
18985;BME280;9626;52.552;13.436;2023-03-16T05:28:16;101548.47;;;-0.17;100.00
18985;BME280;9626;52.552;13.436;2023-03-16T05:30:42;101552.03;;;-0.15;100.00
18985;BME280;9626;52.552;13.436;2023-03-16T05:33:09;101553.56;;;-0.20;100.00
18985;BME280;9626;52.552;13.436;2023-03-16T05:35:36;101550.91;;;-0.22;100.00
18985;BME280;9626;52.552;13.436;2023-03-16T05:38:03;101555.47;;;-0.16;100.00
18985;BME280;9626;52.552;13.436;2023-03-16T05:40:29;101558.00;;;-0.18;100.00
18985;BME280;9626;52.552;13.436;2023-03-16T05:42:56;101555.09;;;-0.25;100.00
18985;BME280;9626;52.552;13.436;2023-03-16T05:45:23;101562.44;;;-0.38;100.00
18985;BME280;9626;52.552;13.436;2023-03-16T05:47:49;101565.66;;;-0.45;100.00
18985;BME280;9626;52.552;13.436;2023-03-16T05:50:33;101564.22;;;-0.37;100.00
18985;BME280;9626;52.552;13.436;2023-03-16T05:52:59;101573.69;;;-0.39;100.00
18985;BME280;9626;52.552;13.436;2023-03-16T05:55:25;101573.69;;;-0.39;100.00
18985;BME280;9626;52.552;13.436;2023-03-16T05:57:51;101572.69;;;-0.42;100.00
18985;BME280;9626;52.552;13.436;2023-03-16T06:00:18;101577.81;;;-0.44;100.00
18985;BME280;9626;52.552;13.436;2023-03-16T06:03:01;101587.44;;;-0.41;100.00
18985;BME280;9626;52.552;13.436;2023-03-16T06:05:27;101584.00;;;-0.19;100.00
18985;BME280;9626;52.552;13.436;2023-03-16T06:07:54;101574.97;;;-0.05;100.00
18985;BME280;9626;52.552;13.436;2023-03-16T06:10:20;101582.97;;;0.00;100.00
18985;BME280;9626;52.552;13.436;2023-03-16T06:13:05;101583.31;;;0.09;100.00
18985;BME280;9626;52.552;13.436;2023-03-16T06:15:31;101580.66;;;0.08;100.00
18985;BME280;9626;52.552;13.436;2023-03-16T06:18:15;101580.88;;;0.14;100.00
18985;BME280;9626;52.552;13.436;2023-03-16T06:21:00;101582.88;;;0.21;100.00
18985;BME280;9626;52.552;13.436;2023-03-16T06:23:45;101581.34;;;0.26;100.00
18985;BME280;9626;52.552;13.436;2023-03-16T06:26:29;101590.09;;;0.28;100.00
18985;BME280;9626;52.552;13.436;2023-03-16T06:29:15;101586.94;;;0.37;100.00
18985;BME280;9626;52.552;13.436;2023-03-16T06:32:00;101584.69;;;0.46;100.00
18985;BME280;9626;52.552;13.436;2023-03-16T06:34:44;101598.69;;;0.50;100.00
18985;BME280;9626;52.552;13.436;2023-03-16T06:37:10;101597.84;;;0.51;100.00
18985;BME280;9626;52.552;13.436;2023-03-16T06:39:55;101598.16;;;0.59;100.00
18985;BME280;9626;52.552;13.436;2023-03-16T06:42:21;101602.69;;;0.64;100.00
18985;BME280;9626;52.552;13.436;2023-03-16T06:44:49;101609.84;;;0.70;100.00
18985;BME280;9626;52.552;13.436;2023-03-16T06:47:36;101603.13;;;0.77;100.00
18985;BME280;9626;52.552;13.436;2023-03-16T06:50:20;101614.69;;;0.85;100.00
18985;BME280;9626;52.552;13.436;2023-03-16T06:53:05;101618.66;;;0.99;100.00
18985;BME280;9626;52.552;13.436;2023-03-16T06:55:44;101616.41;;;1.10;100.00
18985;BME280;9626;52.552;13.436;2023-03-16T06:58:28;101618.69;;;1.27;100.00
18985;BME280;9626;52.552;13.436;2023-03-16T07:00:55;101621.66;;;1.38;100.00
18985;BME280;9626;52.552;13.436;2023-03-16T07:03:21;101623.53;;;1.42;100.00
18985;BME280;9626;52.552;13.436;2023-03-16T07:05:47;101628.19;;;1.50;100.00
18985;BME280;9626;52.552;13.436;2023-03-16T07:08:13;101628.25;;;1.52;100.00
18985;BME280;9626;52.552;13.436;2023-03-16T07:10:59;101637.25;;;1.62;100.00
18985;BME280;9626;52.552;13.436;2023-03-16T07:13:43;101631.53;;;1.74;100.00
18985;BME280;9626;52.552;13.436;2023-03-16T07:16:09;101641.19;;;1.76;100.00
18985;BME280;9626;52.552;13.436;2023-03-16T07:19:02;101647.38;;;1.80;100.00
18985;BME280;9626;52.552;13.436;2023-03-16T07:21:28;101647.97;;;1.98;100.00
18985;BME280;9626;52.552;13.436;2023-03-16T07:24:13;101640.63;;;2.15;100.00
18985;BME280;9626;52.552;13.436;2023-03-16T07:26:58;101649.69;;;2.27;97.67
18985;BME280;9626;52.552;13.436;2023-03-16T07:29:24;101653.19;;;2.58;95.77
18985;BME280;9626;52.552;13.436;2023-03-16T07:31:50;101655.63;;;2.82;90.71
18985;BME280;9626;52.552;13.436;2023-03-16T07:34:17;101663.22;;;3.04;87.41
18985;BME280;9626;52.552;13.436;2023-03-16T07:36:43;101664.78;;;3.31;83.70
18985;BME280;9626;52.552;13.436;2023-03-16T07:39:10;101665.38;;;3.54;84.83
18985;BME280;9626;52.552;13.436;2023-03-16T07:41:39;101668.00;;;3.93;81.53
18985;BME280;9626;52.552;13.436;2023-03-16T07:44:05;101672.66;;;4.04;76.75
18985;BME280;9626;52.552;13.436;2023-03-16T07:46:31;101676.47;;;4.19;73.18
18985;BME280;9626;52.552;13.436;2023-03-16T07:48:57;101669.50;;;4.19;74.13
18985;BME280;9626;52.552;13.436;2023-03-16T07:51:23;101665.44;;;4.34;73.04
18985;BME280;9626;52.552;13.436;2023-03-16T07:53:50;101664.25;;;4.61;70.70
18985;BME280;9626;52.552;13.436;2023-03-16T07:56:15;101665.56;;;4.83;69.60
18985;BME280;9626;52.552;13.436;2023-03-16T07:58:43;101663.00;;;5.33;66.48
18985;BME280;9626;52.552;13.436;2023-03-16T08:01:09;101660.06;;;5.70;64.06
18985;BME280;9626;52.552;13.436;2023-03-16T08:03:36;101666.94;;;5.62;61.72
18985;BME280;9626;52.552;13.436;2023-03-16T08:06:03;101671.84;;;5.92;60.65
18985;BME280;9626;52.552;13.436;2023-03-16T08:08:31;101677.63;;;5.72;60.78
18985;BME280;9626;52.552;13.436;2023-03-16T08:10:57;101669.38;;;5.49;60.40
18985;BME280;9626;52.552;13.436;2023-03-16T08:13:23;101672.50;;;5.79;59.46
18985;BME280;9626;52.552;13.436;2023-03-16T08:15:51;101674.84;;;6.17;59.03
18985;BME280;9626;52.552;13.436;2023-03-16T08:18:30;101679.44;;;6.30;57.49
18985;BME280;9626;52.552;13.436;2023-03-16T08:20:56;101671.41;;;6.22;57.04
18985;BME280;9626;52.552;13.436;2023-03-16T08:23:24;101666.63;;;6.58;55.17
18985;BME280;9626;52.552;13.436;2023-03-16T08:25:54;101674.09;;;6.25;56.49
18985;BME280;9626;52.552;13.436;2023-03-16T08:28:20;101673.09;;;6.19;56.85
18985;BME280;9626;52.552;13.436;2023-03-16T08:31:06;101675.72;;;6.16;57.07
18985;BME280;9626;52.552;13.436;2023-03-16T08:33:32;101679.72;;;5.92;57.74
18985;BME280;9626;52.552;13.436;2023-03-16T08:36:18;101668.72;;;6.16;58.36
18985;BME280;9626;52.552;13.436;2023-03-16T08:38:45;101681.88;;;6.18;57.42
18985;BME280;9626;52.552;13.436;2023-03-16T08:41:12;101679.94;;;6.04;56.51
18985;BME280;9626;52.552;13.436;2023-03-16T08:43:59;101681.78;;;6.12;56.04
18985;BME280;9626;52.552;13.436;2023-03-16T08:46:28;101688.00;;;6.17;55.52
18985;BME280;9626;52.552;13.436;2023-03-16T08:49:09;101688.47;;;6.51;54.59
18985;BME280;9626;52.552;13.436;2023-03-16T08:51:54;101688.63;;;6.65;55.28
18985;BME280;9626;52.552;13.436;2023-03-16T08:54:38;101694.91;;;6.74;54.75
18985;BME280;9626;52.552;13.436;2023-03-16T08:57:13;101697.94;;;7.11;54.19
18985;BME280;9626;52.552;13.436;2023-03-16T08:59:57;101696.66;;;7.58;51.13
18985;BME280;9626;52.552;13.436;2023-03-16T09:02:43;101693.81;;;7.35;50.70
18985;BME280;9626;52.552;13.436;2023-03-16T09:05:11;101701.38;;;7.04;50.50
18985;BME280;9626;52.552;13.436;2023-03-16T09:07:37;101702.66;;;7.42;49.65
18985;BME280;9626;52.552;13.436;2023-03-16T09:10:22;101709.38;;;8.15;47.69
18985;BME280;9626;52.552;13.436;2023-03-16T09:12:49;101698.25;;;8.61;46.13
18985;BME280;9626;52.552;13.436;2023-03-16T09:15:15;101703.47;;;8.49;46.34
18985;BME280;9626;52.552;13.436;2023-03-16T09:17:42;101709.28;;;8.01;47.56
18985;BME280;9626;52.552;13.436;2023-03-16T09:20:10;101709.28;;;7.98;46.89
18985;BME280;9626;52.552;13.436;2023-03-16T09:22:37;101708.59;;;8.27;46.91
18985;BME280;9626;52.552;13.436;2023-03-16T09:25:04;101712.19;;;8.40;45.54
18985;BME280;9626;52.552;13.436;2023-03-16T09:27:32;101707.19;;;9.06;43.15
18985;BME280;9626;52.552;13.436;2023-03-16T09:29:58;101709.81;;;8.89;43.27
18985;BME280;9626;52.552;13.436;2023-03-16T09:32:45;101710.59;;;8.68;44.15
18985;BME280;9626;52.552;13.436;2023-03-16T09:35:13;101727.13;;;8.42;43.93
18985;BME280;9626;52.552;13.436;2023-03-16T09:37:55;101724.59;;;8.55;43.79
18985;BME280;9626;52.552;13.436;2023-03-16T09:40:27;101718.66;;;9.16;42.43
18985;BME280;9626;52.552;13.436;2023-03-16T09:45:58;101710.44;;;11.19;38.18
18985;BME280;9626;52.552;13.436;2023-03-16T09:48:31;101715.84;;;10.97;38.28
18985;BME280;9626;52.552;13.436;2023-03-16T09:51:03;101706.41;;;10.09;39.47
18985;BME280;9626;52.552;13.436;2023-03-16T09:53:54;101709.06;;;9.78;38.83
18985;BME280;9626;52.552;13.436;2023-03-16T09:56:42;101720.94;;;8.34;42.06
18985;BME280;9626;52.552;13.436;2023-03-16T09:59:13;101721.38;;;9.48;40.84
18985;BME280;9626;52.552;13.436;2023-03-16T10:02:18;101716.94;;;9.30;41.14
18985;BME280;9626;52.552;13.436;2023-03-16T10:05:09;101724.66;;;8.64;40.44
18985;BME280;9626;52.552;13.436;2023-03-16T10:11:24;101725.44;;;8.51;39.90
18985;BME280;9626;52.552;13.436;2023-03-16T10:17:00;101715.09;;;8.89;39.35
18985;BME280;9626;52.552;13.436;2023-03-16T10:20:01;101724.63;;;8.61;39.69
18985;BME280;9626;52.552;13.436;2023-03-16T10:22:32;101719.56;;;9.20;39.47
18985;BME280;9626;52.552;13.436;2023-03-16T10:27:50;101705.28;;;10.89;36.18
18985;BME280;9626;52.552;13.436;2023-03-16T10:30:24;101702.78;;;10.52;36.52
18985;BME280;9626;52.552;13.436;2023-03-16T10:32:50;101709.69;;;10.92;35.37
18985;BME280;9626;52.552;13.436;2023-03-16T10:36:22;101701.22;;;11.72;35.13
18985;BME280;9626;52.552;13.436;2023-03-16T10:41:21;101701.25;;;11.69;34.74
18985;BME280;9626;52.552;13.436;2023-03-16T10:43:53;101699.38;;;11.80;34.14
18985;BME280;9626;52.552;13.436;2023-03-16T10:46:21;101692.69;;;11.30;34.89
18985;BME280;9626;52.552;13.436;2023-03-16T10:48:58;101689.19;;;11.28;35.58
18985;BME280;9626;52.552;13.436;2023-03-16T10:51:30;101702.13;;;12.63;33.54
18985;BME280;9626;52.552;13.436;2023-03-16T10:54:47;101694.59;;;12.96;32.13
18985;BME280;9626;52.552;13.436;2023-03-16T10:56:52;101694.31;;;13.17;31.63
18985;BME280;9626;52.552;13.436;2023-03-16T10:59:33;101693.94;;;11.93;32.64
18985;BME280;9626;52.552;13.436;2023-03-16T11:02:15;101704.00;;;12.51;32.24
18985;BME280;9626;52.552;13.436;2023-03-16T11:05:26;101688.72;;;13.36;30.56
18985;BME280;9626;52.552;13.436;2023-03-16T11:08:05;101695.22;;;13.74;29.15
18985;BME280;9626;52.552;13.436;2023-03-16T11:10:43;101690.84;;;13.70;30.07
18985;BME280;9626;52.552;13.436;2023-03-16T11:13:15;101693.47;;;13.73;30.64
18985;BME280;9626;52.552;13.436;2023-03-16T11:18:47;101692.19;;;11.98;33.15
18985;BME280;9626;52.552;13.436;2023-03-16T11:24:29;101679.88;;;11.88;33.31
18985;BME280;9626;52.552;13.436;2023-03-16T11:27:00;101665.88;;;13.23;31.72
18985;BME280;9626;52.552;13.436;2023-03-16T11:32:11;101668.28;;;13.93;30.88
18985;BME280;9626;52.552;13.436;2023-03-16T11:34:39;101674.38;;;13.46;30.29
18985;BME280;9626;52.552;13.436;2023-03-16T11:40:07;101672.78;;;12.71;32.18
18985;BME280;9626;52.552;13.436;2023-03-16T11:42:50;101667.53;;;11.80;34.25
18985;BME280;9626;52.552;13.436;2023-03-16T11:45:35;101668.69;;;12.43;32.92
18985;BME280;9626;52.552;13.436;2023-03-16T11:48:28;101665.97;;;11.58;32.56
18985;BME280;9626;52.552;13.436;2023-03-16T11:51:24;101661.16;;;10.85;33.42
18985;BME280;9626;52.552;13.436;2023-03-16T11:56:58;101652.66;;;9.69;36.26
18985;BME280;9626;52.552;13.436;2023-03-16T12:06:22;101639.06;;;12.74;31.35
18985;BME280;9626;52.552;13.436;2023-03-16T12:14:26;101630.38;;;11.80;32.36
18985;BME280;9626;52.552;13.436;2023-03-16T12:19:46;101632.66;;;11.23;31.54
18985;BME280;9626;52.552;13.436;2023-03-16T12:22:34;101632.84;;;10.92;33.59
18985;BME280;9626;52.552;13.436;2023-03-16T12:25:24;101624.81;;;12.10;31.37
18985;BME280;9626;52.552;13.436;2023-03-16T12:27:55;101628.59;;;13.79;29.64
18985;BME280;9626;52.552;13.436;2023-03-16T12:39:26;101605.97;;;14.03;27.17
18985;BME280;9626;52.552;13.436;2023-03-16T12:42:39;101602.66;;;14.34;28.55
18985;BME280;9626;52.552;13.436;2023-03-16T12:45:35;101606.31;;;14.30;29.40
18985;BME280;9626;52.552;13.436;2023-03-16T12:50:53;101594.31;;;14.93;27.69
18985;BME280;9626;52.552;13.436;2023-03-16T12:56:27;101592.59;;;15.63;28.00
18985;BME280;9626;52.552;13.436;2023-03-16T12:58:57;101598.53;;;15.40;28.24
18985;BME280;9626;52.552;13.436;2023-03-16T13:01:29;101589.94;;;13.58;27.57
18985;BME280;9626;52.552;13.436;2023-03-16T13:05:01;101586.16;;;13.16;26.09
18985;BME280;9626;52.552;13.436;2023-03-16T13:07:18;101579.81;;;13.27;27.01
18985;BME280;9626;52.552;13.436;2023-03-16T13:09:57;101583.38;;;13.77;27.82
18985;BME280;9626;52.552;13.436;2023-03-16T13:12:28;101574.53;;;13.24;29.19
18985;BME280;9626;52.552;13.436;2023-03-16T13:15:01;101571.06;;;13.20;27.46
18985;BME280;9626;52.552;13.436;2023-03-16T13:17:34;101560.06;;;12.85;28.40
18985;BME280;9626;52.552;13.436;2023-03-16T13:20:26;101559.66;;;13.12;28.91
18985;BME280;9626;52.552;13.436;2023-03-16T13:26:14;101570.66;;;12.89;26.98
18985;BME280;9626;52.552;13.436;2023-03-16T13:28:44;101570.69;;;12.20;28.31
18985;BME280;9626;52.552;13.436;2023-03-16T13:31:27;101577.59;;;12.35;27.60
18985;BME280;9626;52.552;13.436;2023-03-16T13:33:59;101578.72;;;12.17;27.42
18985;BME280;9626;52.552;13.436;2023-03-16T13:36:27;101580.66;;;12.04;26.63
18985;BME280;9626;52.552;13.436;2023-03-16T13:39:27;101580.19;;;12.41;25.68
18985;BME280;9626;52.552;13.436;2023-03-16T13:42:14;101570.31;;;11.75;28.40
18985;BME280;9626;52.552;13.436;2023-03-16T13:45:11;101581.88;;;11.69;27.62
18985;BME280;9626;52.552;13.436;2023-03-16T13:47:57;101571.50;;;12.30;27.67
18985;BME280;9626;52.552;13.436;2023-03-16T13:50:49;101570.13;;;12.63;28.72
18985;BME280;9626;52.552;13.436;2023-03-16T13:53:39;101559.84;;;12.39;29.83
18985;BME280;9626;52.552;13.436;2023-03-16T13:56:25;101542.50;;;12.75;29.91
18985;BME280;9626;52.552;13.436;2023-03-16T13:59:12;101542.16;;;12.98;29.56
18985;BME280;9626;52.552;13.436;2023-03-16T14:01:59;101548.09;;;13.14;28.64
18985;BME280;9626;52.552;13.436;2023-03-16T14:04:45;101544.03;;;12.32;28.79
18985;BME280;9626;52.552;13.436;2023-03-16T14:07:36;101532.19;;;11.83;29.85
18985;BME280;9626;52.552;13.436;2023-03-16T14:10:28;101527.56;;;12.04;28.80
18985;BME280;9626;52.552;13.436;2023-03-16T14:13:51;101536.19;;;12.82;28.71
18985;BME280;9626;52.552;13.436;2023-03-16T14:16:17;101524.81;;;12.74;27.72
18985;BME280;9626;52.552;13.436;2023-03-16T14:18:46;101531.94;;;13.27;27.12
18985;BME280;9626;52.552;13.436;2023-03-16T14:21:27;101532.53;;;13.46;27.77
18985;BME280;9626;52.552;13.436;2023-03-16T14:24:34;101525.19;;;13.59;27.83
18985;BME280;9626;52.552;13.436;2023-03-16T14:30:51;101523.44;;;12.47;28.65
18985;BME280;9626;52.552;13.436;2023-03-16T14:33:40;101524.97;;;11.98;30.01
18985;BME280;9626;52.552;13.436;2023-03-16T14:36:11;101519.75;;;11.90;28.58
18985;BME280;9626;52.552;13.436;2023-03-16T14:38:56;101506.47;;;12.57;27.34
18985;BME280;9626;52.552;13.436;2023-03-16T14:41:42;101505.56;;;12.60;25.75